sensor_id;sensor_type;location;lat;lon;timestamp;P1;durP1;ratioP1;P2;durP2;ratioP2
32032;SDS011;31720;52.638;9.216;2023-05-10T00:03:00;2.50;;;1.40;;
32032;SDS011;31720;52.638;9.216;2023-05-10T00:06:04;1.48;;;1.00;;
32032;SDS011;31720;52.638;9.216;2023-05-10T00:09:05;2.85;;;1.33;;
32032;SDS011;31720;52.638;9.216;2023-05-10T00:12:07;2.25;;;1.35;;
32032;SDS011;31720;52.638;9.216;2023-05-10T00:15:08;2.50;;;1.30;;
32032;SDS011;31720;52.638;9.216;2023-05-10T00:18:11;4.38;;;1.48;;
32032;SDS011;31720;52.638;9.216;2023-05-10T00:21:13;4.43;;;1.85;;
32032;SDS011;31720;52.638;9.216;2023-05-10T00:24:14;2.88;;;1.20;;
32032;SDS011;31720;52.638;9.216;2023-05-10T00:27:15;2.58;;;1.17;;
32032;SDS011;31720;52.638;9.216;2023-05-10T00:30:17;2.40;;;1.13;;
32032;SDS011;31720;52.638;9.216;2023-05-10T00:33:20;2.67;;;1.30;;
32032;SDS011;31720;52.638;9.216;2023-05-10T00:36:21;1.23;;;0.95;;
32032;SDS011;31720;52.638;9.216;2023-05-10T00:39:22;3.25;;;1.60;;
32032;SDS011;31720;52.638;9.216;2023-05-10T00:42:24;2.28;;;1.30;;
32032;SDS011;31720;52.638;9.216;2023-05-10T00:45:25;3.60;;;1.33;;
32032;SDS011;31720;52.638;9.216;2023-05-10T00:48:29;1.58;;;1.38;;
32032;SDS011;31720;52.638;9.216;2023-05-10T00:51:31;4.07;;;1.60;;
32032;SDS011;31720;52.638;9.216;2023-05-10T00:54:32;6.05;;;1.40;;
32032;SDS011;31720;52.638;9.216;2023-05-10T00:57:34;5.07;;;1.23;;
32032;SDS011;31720;52.638;9.216;2023-05-10T01:00:35;2.08;;;1.40;;
32032;SDS011;31720;52.638;9.216;2023-05-10T01:03:40;3.17;;;1.80;;
32032;SDS011;31720;52.638;9.216;2023-05-10T01:06:41;4.05;;;1.60;;
32032;SDS011;31720;52.638;9.216;2023-05-10T01:09:43;3.15;;;1.73;;
32032;SDS011;31720;52.638;9.216;2023-05-10T01:12:45;3.78;;;1.63;;
32032;SDS011;31720;52.638;9.216;2023-05-10T01:15:47;3.53;;;1.50;;
32032;SDS011;31720;52.638;9.216;2023-05-10T01:18:50;2.92;;;1.42;;
32032;SDS011;31720;52.638;9.216;2023-05-10T01:21:55;2.90;;;1.10;;
32032;SDS011;31720;52.638;9.216;2023-05-10T01:25:18;5.03;;;1.98;;
32032;SDS011;31720;52.638;9.216;2023-05-10T01:28:49;1.55;;;1.30;;
32032;SDS011;31720;52.638;9.216;2023-05-10T01:32:09;3.95;;;1.70;;
32032;SDS011;31720;52.638;9.216;2023-05-10T01:35:20;3.42;;;1.65;;
32032;SDS011;31720;52.638;9.216;2023-05-10T01:38:27;2.50;;;1.45;;
32032;SDS011;31720;52.638;9.216;2023-05-10T01:41:36;3.50;;;1.35;;
32032;SDS011;31720;52.638;9.216;2023-05-10T01:44:48;5.60;;;2.03;;
32032;SDS011;31720;52.638;9.216;2023-05-10T01:47:58;7.47;;;1.67;;
32032;SDS011;31720;52.638;9.216;2023-05-10T01:51:06;1.77;;;1.48;;
32032;SDS011;31720;52.638;9.216;2023-05-10T01:54:10;1.65;;;1.40;;
32032;SDS011;31720;52.638;9.216;2023-05-10T01:57:14;2.65;;;1.73;;
32032;SDS011;31720;52.638;9.216;2023-05-10T02:00:17;2.78;;;1.60;;
32032;SDS011;31720;52.638;9.216;2023-05-10T02:03:22;3.42;;;2.17;;
32032;SDS011;31720;52.638;9.216;2023-05-10T02:06:25;2.65;;;1.73;;
32032;SDS011;31720;52.638;9.216;2023-05-10T02:09:28;3.67;;;1.77;;
32032;SDS011;31720;52.638;9.216;2023-05-10T02:12:31;2.13;;;1.73;;
32032;SDS011;31720;52.638;9.216;2023-05-10T02:15:35;2.58;;;1.75;;
32032;SDS011;31720;52.638;9.216;2023-05-10T02:18:40;2.58;;;1.80;;
32032;SDS011;31720;52.638;9.216;2023-05-10T02:21:42;5.32;;;1.83;;
32032;SDS011;31720;52.638;9.216;2023-05-10T02:24:45;5.10;;;1.70;;
32032;SDS011;31720;52.638;9.216;2023-05-10T02:27:48;7.68;;;1.90;;
32032;SDS011;31720;52.638;9.216;2023-05-10T02:30:51;5.18;;;1.90;;
32032;SDS011;31720;52.638;9.216;2023-05-10T02:33:54;4.50;;;1.88;;
32032;SDS011;31720;52.638;9.216;2023-05-10T02:36:56;5.25;;;2.28;;
32032;SDS011;31720;52.638;9.216;2023-05-10T02:39:59;3.63;;;1.88;;
32032;SDS011;31720;52.638;9.216;2023-05-10T02:43:03;4.03;;;1.90;;
32032;SDS011;31720;52.638;9.216;2023-05-10T02:46:07;5.30;;;2.00;;
32032;SDS011;31720;52.638;9.216;2023-05-10T02:49:09;2.55;;;1.77;;
32032;SDS011;31720;52.638;9.216;2023-05-10T02:52:11;3.75;;;2.42;;
32032;SDS011;31720;52.638;9.216;2023-05-10T02:55:18;4.35;;;2.15;;
32032;SDS011;31720;52.638;9.216;2023-05-10T02:58:23;4.55;;;1.92;;
32032;SDS011;31720;52.638;9.216;2023-05-10T03:01:25;3.00;;;1.73;;
32032;SDS011;31720;52.638;9.216;2023-05-10T03:04:28;6.22;;;1.88;;
32032;SDS011;31720;52.638;9.216;2023-05-10T03:07:29;2.30;;;1.77;;
32032;SDS011;31720;52.638;9.216;2023-05-10T03:10:31;4.93;;;1.75;;
32032;SDS011;31720;52.638;9.216;2023-05-10T03:13:35;5.63;;;1.98;;
32032;SDS011;31720;52.638;9.216;2023-05-10T03:16:45;8.88;;;1.92;;
32032;SDS011;31720;52.638;9.216;2023-05-10T03:19:53;5.38;;;2.45;;
32032;SDS011;31720;52.638;9.216;2023-05-10T03:22:58;2.80;;;1.80;;
32032;SDS011;31720;52.638;9.216;2023-05-10T03:26:04;2.63;;;1.90;;
32032;SDS011;31720;52.638;9.216;2023-05-10T03:29:06;6.78;;;1.80;;
32032;SDS011;31720;52.638;9.216;2023-05-10T03:32:09;3.58;;;2.30;;
32032;SDS011;31720;52.638;9.216;2023-05-10T03:35:12;4.05;;;2.38;;
32032;SDS011;31720;52.638;9.216;2023-05-10T03:38:14;6.28;;;2.40;;
32032;SDS011;31720;52.638;9.216;2023-05-10T03:41:15;3.35;;;1.85;;
32032;SDS011;31720;52.638;9.216;2023-05-10T03:44:17;5.15;;;2.53;;
32032;SDS011;31720;52.638;9.216;2023-05-10T03:47:18;5.00;;;2.83;;
32032;SDS011;31720;52.638;9.216;2023-05-10T03:50:21;2.55;;;1.90;;
32032;SDS011;31720;52.638;9.216;2023-05-10T03:53:22;4.32;;;2.58;;
32032;SDS011;31720;52.638;9.216;2023-05-10T03:56:24;5.22;;;2.65;;
32032;SDS011;31720;52.638;9.216;2023-05-10T03:59:25;10.90;;;2.80;;
32032;SDS011;31720;52.638;9.216;2023-05-10T04:02:26;4.05;;;2.60;;
32032;SDS011;31720;52.638;9.216;2023-05-10T04:05:29;6.72;;;2.88;;
32032;SDS011;31720;52.638;9.216;2023-05-10T04:08:30;4.18;;;2.72;;
32032;SDS011;31720;52.638;9.216;2023-05-10T04:11:32;4.85;;;2.78;;
32032;SDS011;31720;52.638;9.216;2023-05-10T04:14:33;6.82;;;2.80;;
32032;SDS011;31720;52.638;9.216;2023-05-10T04:17:34;11.55;;;3.50;;
32032;SDS011;31720;52.638;9.216;2023-05-10T04:20:37;5.13;;;2.88;;
32032;SDS011;31720;52.638;9.216;2023-05-10T04:23:38;4.65;;;2.75;;
32032;SDS011;31720;52.638;9.216;2023-05-10T04:26:40;4.80;;;2.78;;
32032;SDS011;31720;52.638;9.216;2023-05-10T04:29:41;9.10;;;3.28;;
32032;SDS011;31720;52.638;9.216;2023-05-10T04:32:43;4.65;;;2.72;;
32032;SDS011;31720;52.638;9.216;2023-05-10T04:35:45;4.00;;;2.70;;
32032;SDS011;31720;52.638;9.216;2023-05-10T04:38:46;5.72;;;3.20;;
32032;SDS011;31720;52.638;9.216;2023-05-10T04:41:48;6.72;;;3.15;;
32032;SDS011;31720;52.638;9.216;2023-05-10T04:44:49;5.93;;;3.38;;
32032;SDS011;31720;52.638;9.216;2023-05-10T04:47:51;8.35;;;3.45;;
32032;SDS011;31720;52.638;9.216;2023-05-10T04:50:54;5.28;;;3.47;;
32032;SDS011;31720;52.638;9.216;2023-05-10T04:53:56;4.60;;;2.88;;
32032;SDS011;31720;52.638;9.216;2023-05-10T04:56:57;11.32;;;3.10;;
32032;SDS011;31720;52.638;9.216;2023-05-10T04:59:59;5.80;;;3.20;;
32032;SDS011;31720;52.638;9.216;2023-05-10T05:03:00;4.38;;;2.53;;
32032;SDS011;31720;52.638;9.216;2023-05-10T05:06:03;5.18;;;3.00;;
32032;SDS011;31720;52.638;9.216;2023-05-10T05:09:05;5.25;;;3.20;;
32032;SDS011;31720;52.638;9.216;2023-05-10T05:12:06;6.43;;;3.25;;
32032;SDS011;31720;52.638;9.216;2023-05-10T05:15:08;8.95;;;3.33;;
32032;SDS011;31720;52.638;9.216;2023-05-10T05:18:10;7.03;;;3.72;;
32032;SDS011;31720;52.638;9.216;2023-05-10T05:21:16;7.50;;;3.80;;
32032;SDS011;31720;52.638;9.216;2023-05-10T05:24:18;5.55;;;3.00;;
32032;SDS011;31720;52.638;9.216;2023-05-10T05:27:19;6.05;;;3.92;;
32032;SDS011;31720;52.638;9.216;2023-05-10T05:30:22;6.20;;;3.30;;
32032;SDS011;31720;52.638;9.216;2023-05-10T05:33:23;6.55;;;3.53;;
32032;SDS011;31720;52.638;9.216;2023-05-10T05:36:26;6.80;;;3.65;;
32032;SDS011;31720;52.638;9.216;2023-05-10T05:39:27;6.75;;;3.88;;
32032;SDS011;31720;52.638;9.216;2023-05-10T05:42:29;5.28;;;3.80;;
32032;SDS011;31720;52.638;9.216;2023-05-10T05:45:31;7.78;;;3.95;;
32032;SDS011;31720;52.638;9.216;2023-05-10T05:48:33;6.45;;;3.78;;
32032;SDS011;31720;52.638;9.216;2023-05-10T05:51:35;7.07;;;4.07;;
32032;SDS011;31720;52.638;9.216;2023-05-10T05:54:37;7.47;;;4.22;;
32032;SDS011;31720;52.638;9.216;2023-05-10T05:57:38;6.07;;;3.88;;
32032;SDS011;31720;52.638;9.216;2023-05-10T06:00:39;9.85;;;4.20;;
32032;SDS011;31720;52.638;9.216;2023-05-10T06:03:41;10.82;;;4.93;;
32032;SDS011;31720;52.638;9.216;2023-05-10T06:06:44;7.30;;;4.35;;
32032;SDS011;31720;52.638;9.216;2023-05-10T06:09:46;8.27;;;4.40;;
32032;SDS011;31720;52.638;9.216;2023-05-10T06:12:47;7.82;;;4.30;;
32032;SDS011;31720;52.638;9.216;2023-05-10T06:15:48;7.00;;;3.65;;
32032;SDS011;31720;52.638;9.216;2023-05-10T06:18:50;6.88;;;3.88;;
32032;SDS011;31720;52.638;9.216;2023-05-10T06:21:52;7.95;;;4.68;;
32032;SDS011;31720;52.638;9.216;2023-05-10T06:24:54;7.45;;;4.82;;
32032;SDS011;31720;52.638;9.216;2023-05-10T06:27:55;6.60;;;3.95;;
32032;SDS011;31720;52.638;9.216;2023-05-10T06:30:57;15.35;;;4.63;;
32032;SDS011;31720;52.638;9.216;2023-05-10T06:33:59;6.93;;;4.10;;
32032;SDS011;31720;52.638;9.216;2023-05-10T06:37:01;7.28;;;4.28;;
32032;SDS011;31720;52.638;9.216;2023-05-10T06:40:03;11.13;;;5.57;;
32032;SDS011;31720;52.638;9.216;2023-05-10T06:43:06;8.68;;;4.38;;
32032;SDS011;31720;52.638;9.216;2023-05-10T06:46:07;6.75;;;4.38;;
32032;SDS011;31720;52.638;9.216;2023-05-10T06:49:08;11.13;;;5.15;;
32032;SDS011;31720;52.638;9.216;2023-05-10T06:52:11;7.57;;;4.80;;
32032;SDS011;31720;52.638;9.216;2023-05-10T06:55:12;9.23;;;5.03;;
32032;SDS011;31720;52.638;9.216;2023-05-10T06:58:14;9.95;;;5.53;;
32032;SDS011;31720;52.638;9.216;2023-05-10T07:01:15;12.40;;;5.28;;
32032;SDS011;31720;52.638;9.216;2023-05-10T07:04:17;9.52;;;4.68;;
32032;SDS011;31720;52.638;9.216;2023-05-10T07:07:19;15.45;;;5.95;;
32032;SDS011;31720;52.638;9.216;2023-05-10T07:10:21;11.07;;;4.32;;
32032;SDS011;31720;52.638;9.216;2023-05-10T07:13:22;9.30;;;5.07;;
32032;SDS011;31720;52.638;9.216;2023-05-10T07:16:24;7.75;;;5.10;;
32032;SDS011;31720;52.638;9.216;2023-05-10T07:19:25;10.93;;;4.78;;
32032;SDS011;31720;52.638;9.216;2023-05-10T07:22:28;7.82;;;4.60;;
32032;SDS011;31720;52.638;9.216;2023-05-10T07:25:29;9.10;;;5.10;;
32032;SDS011;31720;52.638;9.216;2023-05-10T07:28:30;11.93;;;5.63;;
32032;SDS011;31720;52.638;9.216;2023-05-10T07:31:32;10.60;;;5.50;;
32032;SDS011;31720;52.638;9.216;2023-05-10T07:34:33;9.55;;;5.00;;
32032;SDS011;31720;52.638;9.216;2023-05-10T07:37:36;8.05;;;5.07;;
32032;SDS011;31720;52.638;9.216;2023-05-10T07:40:38;10.75;;;5.10;;
32032;SDS011;31720;52.638;9.216;2023-05-10T07:43:40;10.68;;;5.32;;
32032;SDS011;31720;52.638;9.216;2023-05-10T07:46:41;10.40;;;6.38;;
32032;SDS011;31720;52.638;9.216;2023-05-10T07:49:43;11.95;;;5.30;;
32032;SDS011;31720;52.638;9.216;2023-05-10T07:52:45;9.98;;;6.10;;
32032;SDS011;31720;52.638;9.216;2023-05-10T07:55:49;12.88;;;6.50;;
32032;SDS011;31720;52.638;9.216;2023-05-10T07:58:51;8.75;;;5.30;;
32032;SDS011;31720;52.638;9.216;2023-05-10T08:01:52;8.45;;;4.72;;
32032;SDS011;31720;52.638;9.216;2023-05-10T08:04:54;6.72;;;4.32;;
32032;SDS011;31720;52.638;9.216;2023-05-10T08:07:57;6.50;;;3.45;;
32032;SDS011;31720;52.638;9.216;2023-05-10T08:10:59;4.22;;;2.67;;
32032;SDS011;31720;52.638;9.216;2023-05-10T08:14:00;2.72;;;1.98;;
32032;SDS011;31720;52.638;9.216;2023-05-10T08:17:02;4.18;;;2.45;;
32032;SDS011;31720;52.638;9.216;2023-05-10T08:20:04;2.60;;;1.80;;
32032;SDS011;31720;52.638;9.216;2023-05-10T08:23:08;1.60;;;1.33;;
32032;SDS011;31720;52.638;9.216;2023-05-10T08:26:10;2.97;;;1.85;;
32032;SDS011;31720;52.638;9.216;2023-05-10T08:29:11;2.95;;;1.83;;
32032;SDS011;31720;52.638;9.216;2023-05-10T08:32:12;3.30;;;2.40;;
32032;SDS011;31720;52.638;9.216;2023-05-10T08:35:15;4.15;;;2.42;;
32032;SDS011;31720;52.638;9.216;2023-05-10T08:38:17;5.40;;;2.08;;
32032;SDS011;31720;52.638;9.216;2023-05-10T08:41:19;3.33;;;2.47;;
32032;SDS011;31720;52.638;9.216;2023-05-10T08:44:21;4.75;;;2.83;;
32032;SDS011;31720;52.638;9.216;2023-05-10T08:47:22;4.40;;;2.03;;
32032;SDS011;31720;52.638;9.216;2023-05-10T08:50:24;5.57;;;2.83;;
32032;SDS011;31720;52.638;9.216;2023-05-10T08:53:28;4.47;;;2.47;;
32032;SDS011;31720;52.638;9.216;2023-05-10T08:56:31;4.30;;;2.63;;
32032;SDS011;31720;52.638;9.216;2023-05-10T08:59:33;4.35;;;2.42;;
32032;SDS011;31720;52.638;9.216;2023-05-10T09:02:35;4.40;;;2.60;;
32032;SDS011;31720;52.638;9.216;2023-05-10T09:05:38;4.28;;;2.72;;
32032;SDS011;31720;52.638;9.216;2023-05-10T09:08:41;4.03;;;2.42;;
32032;SDS011;31720;52.638;9.216;2023-05-10T09:11:43;3.13;;;2.10;;
32032;SDS011;31720;52.638;9.216;2023-05-10T09:14:44;3.33;;;1.88;;
32032;SDS011;31720;52.638;9.216;2023-05-10T09:17:47;2.80;;;2.05;;
32032;SDS011;31720;52.638;9.216;2023-05-10T09:20:50;4.40;;;2.63;;
32032;SDS011;31720;52.638;9.216;2023-05-10T09:23:53;4.10;;;2.17;;
32032;SDS011;31720;52.638;9.216;2023-05-10T09:26:55;6.10;;;1.98;;
32032;SDS011;31720;52.638;9.216;2023-05-10T09:29:57;2.60;;;1.73;;
32032;SDS011;31720;52.638;9.216;2023-05-10T09:32:59;2.33;;;1.90;;
32032;SDS011;31720;52.638;9.216;2023-05-10T09:36:06;4.25;;;2.38;;
32032;SDS011;31720;52.638;9.216;2023-05-10T09:39:09;3.58;;;2.13;;
32032;SDS011;31720;52.638;9.216;2023-05-10T09:42:10;4.82;;;2.30;;
32032;SDS011;31720;52.638;9.216;2023-05-10T09:45:12;3.13;;;1.98;;
32032;SDS011;31720;52.638;9.216;2023-05-10T09:48:13;7.07;;;2.10;;
32032;SDS011;31720;52.638;9.216;2023-05-10T09:51:18;5.93;;;2.25;;
32032;SDS011;31720;52.638;9.216;2023-05-10T09:54:21;4.38;;;2.50;;
32032;SDS011;31720;52.638;9.216;2023-05-10T09:57:24;4.65;;;2.70;;
32032;SDS011;31720;52.638;9.216;2023-05-10T10:00:25;4.68;;;2.78;;
32032;SDS011;31720;52.638;9.216;2023-05-10T10:03:28;4.95;;;2.58;;
32032;SDS011;31720;52.638;9.216;2023-05-10T10:06:34;5.10;;;3.22;;
32032;SDS011;31720;52.638;9.216;2023-05-10T10:09:38;6.70;;;3.25;;
32032;SDS011;31720;52.638;9.216;2023-05-10T10:12:39;7.82;;;3.78;;
32032;SDS011;31720;52.638;9.216;2023-05-10T10:15:42;5.90;;;3.47;;
32032;SDS011;31720;52.638;9.216;2023-05-10T10:18:44;4.63;;;2.80;;
32032;SDS011;31720;52.638;9.216;2023-05-10T10:21:45;6.57;;;3.40;;
32032;SDS011;31720;52.638;9.216;2023-05-10T10:24:48;5.25;;;3.30;;
32032;SDS011;31720;52.638;9.216;2023-05-10T10:27:56;6.63;;;3.30;;
32032;SDS011;31720;52.638;9.216;2023-05-10T10:31:13;7.10;;;3.83;;
32032;SDS011;31720;52.638;9.216;2023-05-10T10:34:25;5.13;;;2.88;;
32032;SDS011;31720;52.638;9.216;2023-05-10T10:40:47;7.18;;;3.92;;
32032;SDS011;31720;52.638;9.216;2023-05-10T10:43:49;9.23;;;3.53;;
32032;SDS011;31720;52.638;9.216;2023-05-10T10:47:22;7.57;;;3.88;;
32032;SDS011;31720;52.638;9.216;2023-05-10T10:50:27;8.48;;;4.18;;
32032;SDS011;31720;52.638;9.216;2023-05-10T10:53:28;8.95;;;4.35;;
32032;SDS011;31720;52.638;9.216;2023-05-10T10:56:31;8.50;;;4.72;;
32032;SDS011;31720;52.638;9.216;2023-05-10T10:59:33;6.20;;;3.78;;
32032;SDS011;31720;52.638;9.216;2023-05-10T11:02:37;8.02;;;4.30;;
32032;SDS011;31720;52.638;9.216;2023-05-10T11:05:46;8.48;;;4.07;;
32032;SDS011;31720;52.638;9.216;2023-05-10T11:08:48;8.00;;;3.42;;
32032;SDS011;31720;52.638;9.216;2023-05-10T11:11:52;9.57;;;4.88;;
32032;SDS011;31720;52.638;9.216;2023-05-10T11:14:56;7.40;;;4.05;;
32032;SDS011;31720;52.638;9.216;2023-05-10T11:17:58;7.90;;;4.03;;
32032;SDS011;31720;52.638;9.216;2023-05-10T11:21:00;6.75;;;3.90;;
32032;SDS011;31720;52.638;9.216;2023-05-10T11:24:09;8.73;;;4.65;;
32032;SDS011;31720;52.638;9.216;2023-05-10T11:27:15;10.90;;;4.57;;
32032;SDS011;31720;52.638;9.216;2023-05-10T11:30:16;5.38;;;3.67;;
32032;SDS011;31720;52.638;9.216;2023-05-10T11:33:18;10.55;;;4.55;;
32032;SDS011;31720;52.638;9.216;2023-05-10T11:36:21;9.05;;;4.85;;
32032;SDS011;31720;52.638;9.216;2023-05-10T11:39:25;9.45;;;5.18;;
32032;SDS011;31720;52.638;9.216;2023-05-10T11:42:28;9.18;;;4.85;;
32032;SDS011;31720;52.638;9.216;2023-05-10T11:45:31;9.90;;;5.03;;
32032;SDS011;31720;52.638;9.216;2023-05-10T11:48:33;12.35;;;5.20;;
32032;SDS011;31720;52.638;9.216;2023-05-10T11:51:35;7.95;;;4.90;;
32032;SDS011;31720;52.638;9.216;2023-05-10T11:54:37;7.07;;;4.13;;
32032;SDS011;31720;52.638;9.216;2023-05-10T11:57:39;8.52;;;3.60;;
32032;SDS011;31720;52.638;9.216;2023-05-10T12:00:42;6.65;;;4.18;;
32032;SDS011;31720;52.638;9.216;2023-05-10T12:03:43;8.50;;;4.38;;
32032;SDS011;31720;52.638;9.216;2023-05-10T12:06:45;8.18;;;4.75;;
32032;SDS011;31720;52.638;9.216;2023-05-10T12:10:02;8.02;;;3.65;;
32032;SDS011;31720;52.638;9.216;2023-05-10T12:13:05;7.70;;;4.00;;
32032;SDS011;31720;52.638;9.216;2023-05-10T12:16:13;7.00;;;3.60;;
32032;SDS011;31720;52.638;9.216;2023-05-10T12:19:17;9.60;;;4.18;;
32032;SDS011;31720;52.638;9.216;2023-05-10T12:22:20;9.45;;;5.07;;
32032;SDS011;31720;52.638;9.216;2023-05-10T12:25:22;9.70;;;3.72;;
32032;SDS011;31720;52.638;9.216;2023-05-10T12:28:29;10.98;;;5.85;;
32032;SDS011;31720;52.638;9.216;2023-05-10T12:31:31;15.18;;;5.47;;
32032;SDS011;31720;52.638;9.216;2023-05-10T12:34:33;10.63;;;5.40;;
32032;SDS011;31720;52.638;9.216;2023-05-10T12:37:35;13.82;;;5.78;;
32032;SDS011;31720;52.638;9.216;2023-05-10T12:40:39;22.58;;;7.60;;
32032;SDS011;31720;52.638;9.216;2023-05-10T12:43:41;17.58;;;6.93;;
32032;SDS011;31720;52.638;9.216;2023-05-10T12:46:43;19.95;;;7.10;;
32032;SDS011;31720;52.638;9.216;2023-05-10T12:49:44;16.15;;;5.93;;
32032;SDS011;31720;52.638;9.216;2023-05-10T12:52:46;16.25;;;6.30;;
32032;SDS011;31720;52.638;9.216;2023-05-10T12:55:47;13.43;;;5.35;;
32032;SDS011;31720;52.638;9.216;2023-05-10T12:58:50;13.77;;;6.15;;
32032;SDS011;31720;52.638;9.216;2023-05-10T13:01:51;9.15;;;4.22;;
32032;SDS011;31720;52.638;9.216;2023-05-10T13:04:52;9.85;;;4.35;;
32032;SDS011;31720;52.638;9.216;2023-05-10T13:07:54;6.05;;;3.25;;
32032;SDS011;31720;52.638;9.216;2023-05-10T13:10:55;7.80;;;3.30;;
32032;SDS011;31720;52.638;9.216;2023-05-10T13:13:58;5.25;;;2.65;;
32032;SDS011;31720;52.638;9.216;2023-05-10T13:17:00;5.90;;;3.00;;
32032;SDS011;31720;52.638;9.216;2023-05-10T13:20:01;5.43;;;2.78;;
32032;SDS011;31720;52.638;9.216;2023-05-10T13:23:03;4.15;;;2.67;;
32032;SDS011;31720;52.638;9.216;2023-05-10T13:26:04;5.50;;;3.55;;
32032;SDS011;31720;52.638;9.216;2023-05-10T13:29:07;8.32;;;2.72;;
32032;SDS011;31720;52.638;9.216;2023-05-10T13:32:08;3.50;;;2.45;;
32032;SDS011;31720;52.638;9.216;2023-05-10T13:35:10;4.40;;;2.45;;
32032;SDS011;31720;52.638;9.216;2023-05-10T13:38:12;7.32;;;2.00;;
32032;SDS011;31720;52.638;9.216;2023-05-10T13:41:14;2.63;;;1.55;;
32032;SDS011;31720;52.638;9.216;2023-05-10T13:44:16;3.80;;;1.52;;
32032;SDS011;31720;52.638;9.216;2023-05-10T13:47:18;2.47;;;1.35;;
32032;SDS011;31720;52.638;9.216;2023-05-10T13:50:21;2.90;;;1.10;;
32032;SDS011;31720;52.638;9.216;2023-05-10T13:53:22;1.35;;;1.13;;
32032;SDS011;31720;52.638;9.216;2023-05-10T13:56:24;1.23;;;1.00;;
32032;SDS011;31720;52.638;9.216;2023-05-10T13:59:27;1.27;;;1.10;;
32032;SDS011;31720;52.638;9.216;2023-05-10T14:02:28;1.30;;;1.00;;
32032;SDS011;31720;52.638;9.216;2023-05-10T14:05:29;1.30;;;1.20;;
32032;SDS011;31720;52.638;9.216;2023-05-10T14:08:31;1.27;;;1.15;;
32032;SDS011;31720;52.638;9.216;2023-05-10T14:11:32;2.22;;;1.23;;
32032;SDS011;31720;52.638;9.216;2023-05-10T14:14:35;3.35;;;0.85;;
32032;SDS011;31720;52.638;9.216;2023-05-10T14:17:36;2.22;;;1.50;;
32032;SDS011;31720;52.638;9.216;2023-05-10T14:20:38;1.85;;;1.27;;
32032;SDS011;31720;52.638;9.216;2023-05-10T14:23:39;1.27;;;0.82;;
32032;SDS011;31720;52.638;9.216;2023-05-10T14:26:40;1.00;;;0.90;;
32032;SDS011;31720;52.638;9.216;2023-05-10T14:29:43;1.08;;;0.98;;
32032;SDS011;31720;52.638;9.216;2023-05-10T14:32:44;1.25;;;0.95;;
32032;SDS011;31720;52.638;9.216;2023-05-10T14:35:46;2.67;;;1.67;;
32032;SDS011;31720;52.638;9.216;2023-05-10T14:38:48;1.75;;;1.10;;
32032;SDS011;31720;52.638;9.216;2023-05-10T14:41:49;1.20;;;0.98;;
32032;SDS011;31720;52.638;9.216;2023-05-10T14:44:52;3.55;;;1.20;;
32032;SDS011;31720;52.638;9.216;2023-05-10T14:47:54;2.22;;;1.55;;
32032;SDS011;31720;52.638;9.216;2023-05-10T14:50:55;4.38;;;2.42;;
32032;SDS011;31720;52.638;9.216;2023-05-10T14:53:57;1.55;;;1.08;;
32032;SDS011;31720;52.638;9.216;2023-05-10T14:56:58;1.15;;;0.90;;
32032;SDS011;31720;52.638;9.216;2023-05-10T15:00:01;2.75;;;1.10;;
32032;SDS011;31720;52.638;9.216;2023-05-10T15:03:03;1.13;;;0.98;;
32032;SDS011;31720;52.638;9.216;2023-05-10T15:06:05;0.70;;;0.50;;
32032;SDS011;31720;52.638;9.216;2023-05-10T15:09:06;1.08;;;0.82;;
32032;SDS011;31720;52.638;9.216;2023-05-10T15:12:08;2.15;;;1.00;;
32032;SDS011;31720;52.638;9.216;2023-05-10T15:15:11;1.52;;;1.02;;
32032;SDS011;31720;52.638;9.216;2023-05-10T15:18:13;0.75;;;0.70;;
32032;SDS011;31720;52.638;9.216;2023-05-10T15:21:14;1.48;;;1.10;;
32032;SDS011;31720;52.638;9.216;2023-05-10T15:24:15;1.05;;;0.75;;
32032;SDS011;31720;52.638;9.216;2023-05-10T15:27:17;0.52;;;0.52;;
32032;SDS011;31720;52.638;9.216;2023-05-10T15:30:20;1.23;;;0.73;;
32032;SDS011;31720;52.638;9.216;2023-05-10T15:33:21;0.93;;;0.80;;
32032;SDS011;31720;52.638;9.216;2023-05-10T15:36:23;0.52;;;0.52;;
32032;SDS011;31720;52.638;9.216;2023-05-10T15:39:24;0.60;;;0.60;;
32032;SDS011;31720;52.638;9.216;2023-05-10T15:42:25;1.10;;;0.68;;
32032;SDS011;31720;52.638;9.216;2023-05-10T15:45:28;0.40;;;0.40;;
32032;SDS011;31720;52.638;9.216;2023-05-10T15:48:29;1.30;;;1.02;;
32032;SDS011;31720;52.638;9.216;2023-05-10T15:51:31;1.02;;;0.73;;
32032;SDS011;31720;52.638;9.216;2023-05-10T15:54:33;1.13;;;0.88;;
32032;SDS011;31720;52.638;9.216;2023-05-10T15:57:35;0.85;;;0.80;;
32032;SDS011;31720;52.638;9.216;2023-05-10T16:00:37;18.02;;;7.55;;
32032;SDS011;31720;52.638;9.216;2023-05-10T16:03:39;0.95;;;0.90;;
32032;SDS011;31720;52.638;9.216;2023-05-10T16:06:40;2.17;;;1.00;;
32032;SDS011;31720;52.638;9.216;2023-05-10T16:09:42;0.75;;;0.75;;
32032;SDS011;31720;52.638;9.216;2023-05-10T16:12:43;2.15;;;1.10;;
32032;SDS011;31720;52.638;9.216;2023-05-10T16:15:46;1.65;;;1.15;;
32032;SDS011;31720;52.638;9.216;2023-05-10T16:18:47;1.13;;;0.95;;
32032;SDS011;31720;52.638;9.216;2023-05-10T16:21:48;0.77;;;0.77;;
32032;SDS011;31720;52.638;9.216;2023-05-10T16:24:50;0.90;;;0.88;;
32032;SDS011;31720;52.638;9.216;2023-05-10T16:27:52;0.55;;;0.55;;
32032;SDS011;31720;52.638;9.216;2023-05-10T16:30:55;0.70;;;0.60;;
32032;SDS011;31720;52.638;9.216;2023-05-10T16:33:56;2.70;;;0.60;;
32032;SDS011;31720;52.638;9.216;2023-05-10T16:36:57;0.50;;;0.50;;
32032;SDS011;31720;52.638;9.216;2023-05-10T16:39:59;0.52;;;0.40;;
32032;SDS011;31720;52.638;9.216;2023-05-10T16:43:00;0.80;;;0.57;;
32032;SDS011;31720;52.638;9.216;2023-05-10T16:46:04;0.85;;;0.50;;
32032;SDS011;31720;52.638;9.216;2023-05-10T16:49:10;1.00;;;0.80;;
32032;SDS011;31720;52.638;9.216;2023-05-10T16:52:12;0.75;;;0.70;;
32032;SDS011;31720;52.638;9.216;2023-05-10T16:55:13;0.65;;;0.65;;
32032;SDS011;31720;52.638;9.216;2023-05-10T16:58:14;0.95;;;0.60;;
32032;SDS011;31720;52.638;9.216;2023-05-10T17:01:17;1.25;;;1.00;;
32032;SDS011;31720;52.638;9.216;2023-05-10T17:04:19;0.75;;;0.70;;
32032;SDS011;31720;52.638;9.216;2023-05-10T17:07:20;0.88;;;0.85;;
32032;SDS011;31720;52.638;9.216;2023-05-10T17:10:22;0.90;;;0.85;;
32032;SDS011;31720;52.638;9.216;2023-05-10T17:13:24;1.23;;;0.98;;
32032;SDS011;31720;52.638;9.216;2023-05-10T17:16:26;1.48;;;1.38;;
32032;SDS011;31720;52.638;9.216;2023-05-10T17:19:28;1.50;;;1.20;;
32032;SDS011;31720;52.638;9.216;2023-05-10T17:22:30;1.48;;;1.10;;
32032;SDS011;31720;52.638;9.216;2023-05-10T17:25:31;1.00;;;0.90;;
32032;SDS011;31720;52.638;9.216;2023-05-10T17:28:35;2.15;;;1.30;;
32032;SDS011;31720;52.638;9.216;2023-05-10T17:31:37;1.30;;;1.20;;
32032;SDS011;31720;52.638;9.216;2023-05-10T17:34:39;1.30;;;1.00;;
32032;SDS011;31720;52.638;9.216;2023-05-10T17:37:40;0.98;;;0.80;;
32032;SDS011;31720;52.638;9.216;2023-05-10T17:40:43;1.00;;;0.90;;
32032;SDS011;31720;52.638;9.216;2023-05-10T17:43:44;1.08;;;0.98;;
32032;SDS011;31720;52.638;9.216;2023-05-10T17:46:47;1.42;;;1.00;;
32032;SDS011;31720;52.638;9.216;2023-05-10T17:49:48;0.73;;;0.73;;
32032;SDS011;31720;52.638;9.216;2023-05-10T17:52:49;0.90;;;0.90;;
32032;SDS011;31720;52.638;9.216;2023-05-10T17:55:51;1.88;;;1.05;;
32032;SDS011;31720;52.638;9.216;2023-05-10T17:58:52;0.80;;;0.73;;
32032;SDS011;31720;52.638;9.216;2023-05-10T18:01:55;3.45;;;1.10;;
32032;SDS011;31720;52.638;9.216;2023-05-10T18:04:56;2.22;;;1.00;;
32032;SDS011;31720;52.638;9.216;2023-05-10T18:08:00;0.95;;;0.90;;
32032;SDS011;31720;52.638;9.216;2023-05-10T18:11:01;1.42;;;1.02;;
32032;SDS011;31720;52.638;9.216;2023-05-10T18:14:02;1.35;;;1.13;;
32032;SDS011;31720;52.638;9.216;2023-05-10T18:17:05;1.23;;;1.13;;
32032;SDS011;31720;52.638;9.216;2023-05-10T18:20:07;2.17;;;1.40;;
32032;SDS011;31720;52.638;9.216;2023-05-10T18:23:09;2.35;;;1.52;;